Sherrills Ford, NC

2:01 AM EDT on September 18, 2014 (GMT -0400)
Sherrills Ford, NC | Change Station
CLOSE
Current Station
Personal Weather Station
Location: Sherrills Ford, NC
Elevation: 915 ft
Nearby Weather Stations

Elev 915 ft 35.62 °N, 80.99 °W | Updated 48 seconds ago

Fog
Fog
62.1 °F
Feels Like 62.1 °F
N
0.7
Wind Variable Wind from North
Gusts 0.7 mph

Today
High -- | Low -- °F
--% Chance of Precip.
Yesterday
High -- | Low -- °F
Precip. -- in
7:08 AM 7:26 PM
Waning Crescent, 30% visible
Pressure 29.96 in
Visibility 3.0 miles
Clouds Scattered Clouds 3000 ft
Dew Point 62 °F
Humidity 98%
Rainfall 0.00 in
Snow Depth Not available.
UV 0 out of 12
Pollen 7.70 out of 12
Ozone Good
PM2.5 Moderate
Flu Activity Not available.
METAR KSVH 180555Z AUTO 00000KT 3SM BR SCT030 15/15 A2996 RMK AO2 T01510150 10191 20151

More Conditions Fewer Conditions

Pressure 29.96 in
Visibility 3.0 miles
Clouds Scattered Clouds 3000 ft
Dew Point 62 °F
Humidity 98%
Rainfall 0.00 in
Snow Depth Not available.
UV 0 out of 12
Pollen 7.70 out of 12
Ozone Good
PM2.5 Moderate
Flu Activity Not available.
METAR KSVH 180555Z AUTO 00000KT 3SM BR SCT030 15/15 A2996 RMK AO2 T01510150 10191 20151

More Conditions Fewer Conditions

10-Day Weather Forecast

Almanac

Astronomy

Sep. 18, 2014 Rise Set
Actual Time 7:08 AM EDT 7:26 PM EDT
Civil Twilight 6:43 AM EDT 7:52 PM EDT
Nautical Twilight 6:13 AM EDT 8:21 PM EDT
Astronomical Twilight 5:43 AM EDT 8:52 PM EDT
Moon 2:07 AM EDT 4:09 PM EDT
Length of Visible Light 13h 08m
Length of Day
12h 17m
Tomorrow will be 2m 13s shorter.
Waning Crescent, 30% of the Moon is Illuminated
Today
Waning Crescent
Sep 24
New
Oct 1
First Quarter
Oct 8
Full
Oct 15
Last Quarter

Today's Extremes

State Highs State Lows

Community

WunderPhotos

Upload Photos

1,754,297 photos uploaded!

Nearby

Air Quality

  Air Quality AQ Index Pollutant
Yesterday Good
PM2.5
Yesterday Good
OZONE
Current Moderate
PM2.5
Current Good
OZONE
Thursday Good
PM2.5
Thursday Good
OZONE
Friday Good
PM2.5
Friday Good
OZONE
Saturday Good
PM2.5
Saturday Good
OZONE

Snow Depth

Station Depth Elevation
No new snow has been reported.

Earthquake Activity

City Distance Mag. Time & Date
No recent earthquake activity has been reported nearby.
Minimum magnitude displayed is 2.5.

Coastal Water Temperatures

Place Temperature
No Stations Reporting

Nearby Weather Stations